sensor_id;sensor_type;location;lat;lon;timestamp;P1;durP1;ratioP1;P2;durP2;ratioP2
71648;SDS011;59492;45.638;11.714;2022-07-23T00:00:09;12.40;;;9.60;;
71648;SDS011;59492;45.638;11.714;2022-07-23T00:02:35;14.60;;;10.10;;
71648;SDS011;59492;45.638;11.714;2022-07-23T00:05:00;11.00;;;9.90;;
71648;SDS011;59492;45.638;11.714;2022-07-23T00:07:26;14.80;;;10.60;;
71648;SDS011;59492;45.638;11.714;2022-07-23T00:09:52;11.30;;;10.20;;
71648;SDS011;59492;45.638;11.714;2022-07-23T00:12:17;11.10;;;9.90;;
71648;SDS011;59492;45.638;11.714;2022-07-23T00:14:43;15.60;;;10.50;;
71648;SDS011;59492;45.638;11.714;2022-07-23T00:17:09;13.20;;;10.30;;
71648;SDS011;59492;45.638;11.714;2022-07-23T00:19:34;11.90;;;10.70;;
71648;SDS011;59492;45.638;11.714;2022-07-23T00:22:00;12.50;;;11.10;;
71648;SDS011;59492;45.638;11.714;2022-07-23T00:24:26;13.40;;;10.50;;
71648;SDS011;59492;45.638;11.714;2022-07-23T00:26:51;14.40;;;10.20;;
71648;SDS011;59492;45.638;11.714;2022-07-23T00:29:17;11.80;;;10.70;;
71648;SDS011;59492;45.638;11.714;2022-07-23T00:31:42;13.00;;;10.80;;
71648;SDS011;59492;45.638;11.714;2022-07-23T00:34:08;12.60;;;11.00;;
71648;SDS011;59492;45.638;11.714;2022-07-23T00:36:34;15.50;;;11.30;;
71648;SDS011;59492;45.638;11.714;2022-07-23T00:38:59;13.10;;;11.40;;
71648;SDS011;59492;45.638;11.714;2022-07-23T00:41:25;13.20;;;11.80;;
71648;SDS011;59492;45.638;11.714;2022-07-23T00:43:50;13.40;;;11.70;;
71648;SDS011;59492;45.638;11.714;2022-07-23T00:46:20;13.10;;;11.50;;
71648;SDS011;59492;45.638;11.714;2022-07-23T00:48:46;13.40;;;11.50;;
71648;SDS011;59492;45.638;11.714;2022-07-23T00:51:12;18.70;;;12.50;;
71648;SDS011;59492;45.638;11.714;2022-07-23T00:53:37;13.10;;;11.70;;
71648;SDS011;59492;45.638;11.714;2022-07-23T00:56:03;13.30;;;11.60;;
71648;SDS011;59492;45.638;11.714;2022-07-23T00:58:29;13.30;;;12.10;;
71648;SDS011;59492;45.638;11.714;2022-07-23T01:00:55;16.40;;;12.50;;
71648;SDS011;59492;45.638;11.714;2022-07-23T01:03:21;18.00;;;12.80;;
71648;SDS011;59492;45.638;11.714;2022-07-23T01:05:47;13.60;;;11.80;;
71648;SDS011;59492;45.638;11.714;2022-07-23T01:08:13;16.60;;;12.10;;
71648;SDS011;59492;45.638;11.714;2022-07-23T01:10:39;13.50;;;12.10;;
71648;SDS011;59492;45.638;11.714;2022-07-23T01:13:08;14.60;;;13.00;;
71648;SDS011;59492;45.638;11.714;2022-07-23T01:15:35;16.70;;;12.00;;
71648;SDS011;59492;45.638;11.714;2022-07-23T01:18:02;13.60;;;12.00;;
71648;SDS011;59492;45.638;11.714;2022-07-23T01:20:30;13.70;;;12.30;;
71648;SDS011;59492;45.638;11.714;2022-07-23T01:22:57;14.90;;;12.00;;
71648;SDS011;59492;45.638;11.714;2022-07-23T01:25:23;15.60;;;12.20;;
71648;SDS011;59492;45.638;11.714;2022-07-23T01:27:49;14.20;;;12.60;;
71648;SDS011;59492;45.638;11.714;2022-07-23T01:30:17;13.40;;;12.10;;
71648;SDS011;59492;45.638;11.714;2022-07-23T01:32:43;14.90;;;13.30;;
71648;SDS011;59492;45.638;11.714;2022-07-23T01:35:09;14.10;;;12.60;;
71648;SDS011;59492;45.638;11.714;2022-07-23T01:37:35;15.10;;;12.50;;
71648;SDS011;59492;45.638;11.714;2022-07-23T01:40:02;14.60;;;13.10;;
71648;SDS011;59492;45.638;11.714;2022-07-23T01:42:28;13.90;;;12.50;;
71648;SDS011;59492;45.638;11.714;2022-07-23T01:44:53;16.60;;;12.60;;
71648;SDS011;59492;45.638;11.714;2022-07-23T01:47:19;15.20;;;12.40;;
71648;SDS011;59492;45.638;11.714;2022-07-23T01:49:45;17.20;;;12.90;;
71648;SDS011;59492;45.638;11.714;2022-07-23T01:52:10;14.10;;;12.20;;
71648;SDS011;59492;45.638;11.714;2022-07-23T01:54:36;16.40;;;12.80;;
71648;SDS011;59492;45.638;11.714;2022-07-23T01:57:04;15.00;;;12.40;;
71648;SDS011;59492;45.638;11.714;2022-07-23T01:59:31;15.00;;;13.00;;
71648;SDS011;59492;45.638;11.714;2022-07-23T02:01:57;14.20;;;12.50;;
71648;SDS011;59492;45.638;11.714;2022-07-23T02:04:23;14.10;;;12.70;;
71648;SDS011;59492;45.638;11.714;2022-07-23T02:06:50;17.00;;;12.80;;
71648;SDS011;59492;45.638;11.714;2022-07-23T02:09:17;14.40;;;12.90;;
71648;SDS011;59492;45.638;11.714;2022-07-23T02:11:43;15.50;;;13.10;;
71648;SDS011;59492;45.638;11.714;2022-07-23T02:14:09;14.10;;;12.60;;
71648;SDS011;59492;45.638;11.714;2022-07-23T02:16:34;15.00;;;12.50;;
71648;SDS011;59492;45.638;11.714;2022-07-23T02:19:00;13.90;;;12.60;;
71648;SDS011;59492;45.638;11.714;2022-07-23T02:21:26;16.00;;;12.50;;
71648;SDS011;59492;45.638;11.714;2022-07-23T02:23:51;15.00;;;13.40;;
71648;SDS011;59492;45.638;11.714;2022-07-23T02:26:17;13.70;;;12.40;;
71648;SDS011;59492;45.638;11.714;2022-07-23T02:28:42;14.30;;;12.90;;
71648;SDS011;59492;45.638;11.714;2022-07-23T02:31:08;14.30;;;12.30;;
71648;SDS011;59492;45.638;11.714;2022-07-23T02:33:34;14.50;;;12.80;;
71648;SDS011;59492;45.638;11.714;2022-07-23T02:36:00;16.00;;;12.70;;
71648;SDS011;59492;45.638;11.714;2022-07-23T02:38:26;13.70;;;12.30;;
71648;SDS011;59492;45.638;11.714;2022-07-23T02:40:51;14.20;;;12.60;;
71648;SDS011;59492;45.638;11.714;2022-07-23T02:43:17;14.90;;;12.20;;
71648;SDS011;59492;45.638;11.714;2022-07-23T02:45:43;13.90;;;12.50;;
71648;SDS011;59492;45.638;11.714;2022-07-23T02:48:08;14.70;;;12.40;;
71648;SDS011;59492;45.638;11.714;2022-07-23T02:50:37;13.10;;;11.80;;
71648;SDS011;59492;45.638;11.714;2022-07-23T02:53:03;14.90;;;12.30;;
71648;SDS011;59492;45.638;11.714;2022-07-23T02:55:29;14.70;;;12.60;;
71648;SDS011;59492;45.638;11.714;2022-07-23T02:57:56;14.10;;;12.30;;
71648;SDS011;59492;45.638;11.714;2022-07-23T03:00:21;24.10;;;12.90;;
71648;SDS011;59492;45.638;11.714;2022-07-23T03:02:47;13.70;;;12.20;;
71648;SDS011;59492;45.638;11.714;2022-07-23T03:05:13;13.80;;;12.40;;
71648;SDS011;59492;45.638;11.714;2022-07-23T03:07:38;14.10;;;12.60;;
71648;SDS011;59492;45.638;11.714;2022-07-23T03:10:04;14.40;;;12.80;;
71648;SDS011;59492;45.638;11.714;2022-07-23T03:12:30;13.70;;;12.20;;
71648;SDS011;59492;45.638;11.714;2022-07-23T03:14:55;13.80;;;12.40;;
71648;SDS011;59492;45.638;11.714;2022-07-23T03:17:21;15.30;;;12.60;;
71648;SDS011;59492;45.638;11.714;2022-07-23T03:19:46;15.30;;;12.30;;
71648;SDS011;59492;45.638;11.714;2022-07-23T03:22:12;14.70;;;13.00;;
71648;SDS011;59492;45.638;11.714;2022-07-23T03:24:38;16.80;;;12.40;;
71648;SDS011;59492;45.638;11.714;2022-07-23T03:27:18;13.90;;;12.20;;
71648;SDS011;59492;45.638;11.714;2022-07-23T03:29:45;17.00;;;12.50;;
71648;SDS011;59492;45.638;11.714;2022-07-23T03:32:11;14.10;;;12.50;;
71648;SDS011;59492;45.638;11.714;2022-07-23T03:34:37;13.70;;;12.30;;
71648;SDS011;59492;45.638;11.714;2022-07-23T03:37:03;13.40;;;12.00;;
71648;SDS011;59492;45.638;11.714;2022-07-23T03:39:29;16.40;;;12.30;;
71648;SDS011;59492;45.638;11.714;2022-07-23T03:41:55;13.90;;;12.30;;
71648;SDS011;59492;45.638;11.714;2022-07-23T03:44:20;13.40;;;12.00;;
71648;SDS011;59492;45.638;11.714;2022-07-23T03:46:46;14.80;;;12.50;;
71648;SDS011;59492;45.638;11.714;2022-07-23T03:49:12;14.70;;;12.20;;
71648;SDS011;59492;45.638;11.714;2022-07-23T03:51:37;15.50;;;12.00;;
71648;SDS011;59492;45.638;11.714;2022-07-23T03:54:03;15.00;;;13.00;;
71648;SDS011;59492;45.638;11.714;2022-07-23T03:56:29;15.80;;;12.70;;
71648;SDS011;59492;45.638;11.714;2022-07-23T03:58:54;14.30;;;12.60;;
71648;SDS011;59492;45.638;11.714;2022-07-23T04:01:20;15.30;;;11.90;;
71648;SDS011;59492;45.638;11.714;2022-07-23T04:03:46;16.40;;;12.00;;
71648;SDS011;59492;45.638;11.714;2022-07-23T04:06:14;14.90;;;12.00;;
71648;SDS011;59492;45.638;11.714;2022-07-23T04:08:44;13.70;;;12.00;;
71648;SDS011;59492;45.638;11.714;2022-07-23T04:11:15;13.60;;;12.20;;
71648;SDS011;59492;45.638;11.714;2022-07-23T04:13:40;16.60;;;11.90;;
71648;SDS011;59492;45.638;11.714;2022-07-23T04:16:07;15.50;;;12.20;;
71648;SDS011;59492;45.638;11.714;2022-07-23T04:18:35;15.70;;;12.30;;
71648;SDS011;59492;45.638;11.714;2022-07-23T04:21:01;14.50;;;12.80;;
71648;SDS011;59492;45.638;11.714;2022-07-23T04:23:29;15.00;;;13.40;;
71648;SDS011;59492;45.638;11.714;2022-07-23T04:25:55;16.80;;;14.80;;
71648;SDS011;59492;45.638;11.714;2022-07-23T04:28:22;18.10;;;14.50;;
71648;SDS011;59492;45.638;11.714;2022-07-23T04:30:49;17.40;;;14.80;;
71648;SDS011;59492;45.638;11.714;2022-07-23T04:33:22;15.50;;;14.00;;
71648;SDS011;59492;45.638;11.714;2022-07-23T04:35:50;18.20;;;15.10;;
71648;SDS011;59492;45.638;11.714;2022-07-23T04:38:21;22.40;;;15.90;;
71648;SDS011;59492;45.638;11.714;2022-07-23T04:40:49;19.20;;;15.20;;
71648;SDS011;59492;45.638;11.714;2022-07-23T04:43:17;21.00;;;15.20;;
71648;SDS011;59492;45.638;11.714;2022-07-23T04:45:44;17.70;;;14.60;;
71648;SDS011;59492;45.638;11.714;2022-07-23T04:48:11;19.50;;;15.90;;
71648;SDS011;59492;45.638;11.714;2022-07-23T04:50:38;19.10;;;15.40;;
71648;SDS011;59492;45.638;11.714;2022-07-23T04:53:04;16.80;;;14.70;;
71648;SDS011;59492;45.638;11.714;2022-07-23T04:55:30;16.10;;;14.30;;
71648;SDS011;59492;45.638;11.714;2022-07-23T04:57:56;20.90;;;15.00;;
71648;SDS011;59492;45.638;11.714;2022-07-23T05:00:21;17.50;;;14.30;;
71648;SDS011;59492;45.638;11.714;2022-07-23T05:02:47;18.50;;;15.60;;
71648;SDS011;59492;45.638;11.714;2022-07-23T05:05:13;21.40;;;14.10;;
71648;SDS011;59492;45.638;11.714;2022-07-23T05:07:38;17.00;;;14.00;;
71648;SDS011;59492;45.638;11.714;2022-07-23T05:10:04;16.90;;;14.20;;
71648;SDS011;59492;45.638;11.714;2022-07-23T05:12:30;18.20;;;13.90;;
71648;SDS011;59492;45.638;11.714;2022-07-23T05:14:56;16.40;;;13.90;;
71648;SDS011;59492;45.638;11.714;2022-07-23T05:17:22;19.50;;;13.80;;
71648;SDS011;59492;45.638;11.714;2022-07-23T05:19:48;21.20;;;12.30;;
71648;SDS011;59492;45.638;11.714;2022-07-23T05:22:15;16.10;;;12.50;;
71648;SDS011;59492;45.638;11.714;2022-07-23T05:24:41;13.80;;;11.70;;
71648;SDS011;59492;45.638;11.714;2022-07-23T05:27:09;14.40;;;12.70;;
71648;SDS011;59492;45.638;11.714;2022-07-23T05:29:35;15.80;;;11.80;;
71648;SDS011;59492;45.638;11.714;2022-07-23T05:32:01;14.40;;;12.00;;
71648;SDS011;59492;45.638;11.714;2022-07-23T05:34:26;19.00;;;12.60;;
71648;SDS011;59492;45.638;11.714;2022-07-23T05:36:52;15.40;;;11.90;;
71648;SDS011;59492;45.638;11.714;2022-07-23T05:39:18;18.70;;;12.10;;
71648;SDS011;59492;45.638;11.714;2022-07-23T05:41:43;18.10;;;12.90;;
71648;SDS011;59492;45.638;11.714;2022-07-23T05:44:09;14.90;;;11.40;;
71648;SDS011;59492;45.638;11.714;2022-07-23T05:46:35;16.10;;;12.30;;
71648;SDS011;59492;45.638;11.714;2022-07-23T05:49:00;13.80;;;12.20;;
71648;SDS011;59492;45.638;11.714;2022-07-23T05:51:26;15.90;;;12.60;;
71648;SDS011;59492;45.638;11.714;2022-07-23T05:53:51;16.50;;;12.80;;
71648;SDS011;59492;45.638;11.714;2022-07-23T05:56:19;16.10;;;12.30;;
71648;SDS011;59492;45.638;11.714;2022-07-23T05:58:45;14.50;;;11.90;;
71648;SDS011;59492;45.638;11.714;2022-07-23T06:01:10;16.30;;;13.00;;
71648;SDS011;59492;45.638;11.714;2022-07-23T06:03:39;14.30;;;12.60;;
71648;SDS011;59492;45.638;11.714;2022-07-23T06:06:05;12.80;;;11.60;;
71648;SDS011;59492;45.638;11.714;2022-07-23T06:08:31;13.90;;;12.10;;
71648;SDS011;59492;45.638;11.714;2022-07-23T06:10:57;14.40;;;12.10;;
71648;SDS011;59492;45.638;11.714;2022-07-23T06:13:22;16.70;;;12.30;;
71648;SDS011;59492;45.638;11.714;2022-07-23T06:15:48;16.10;;;12.20;;
71648;SDS011;59492;45.638;11.714;2022-07-23T06:18:14;16.90;;;12.70;;
71648;SDS011;59492;45.638;11.714;2022-07-23T06:20:39;14.00;;;12.60;;
71648;SDS011;59492;45.638;11.714;2022-07-23T06:23:05;13.40;;;11.70;;
71648;SDS011;59492;45.638;11.714;2022-07-23T06:25:31;13.10;;;11.50;;
71648;SDS011;59492;45.638;11.714;2022-07-23T06:27:59;14.20;;;12.80;;
71648;SDS011;59492;45.638;11.714;2022-07-23T06:30:25;14.20;;;12.70;;
71648;SDS011;59492;45.638;11.714;2022-07-23T06:32:50;14.00;;;11.60;;
71648;SDS011;59492;45.638;11.714;2022-07-23T06:35:16;13.60;;;12.20;;
71648;SDS011;59492;45.638;11.714;2022-07-23T06:37:42;15.10;;;12.90;;
71648;SDS011;59492;45.638;11.714;2022-07-23T06:40:08;18.60;;;14.90;;
71648;SDS011;59492;45.638;11.714;2022-07-23T06:42:34;23.60;;;18.20;;
71648;SDS011;59492;45.638;11.714;2022-07-23T06:45:05;23.80;;;19.60;;
71648;SDS011;59492;45.638;11.714;2022-07-23T06:47:31;23.30;;;20.80;;
71648;SDS011;59492;45.638;11.714;2022-07-23T06:49:57;23.30;;;19.90;;
71648;SDS011;59492;45.638;11.714;2022-07-23T06:52:23;21.20;;;18.90;;
71648;SDS011;59492;45.638;11.714;2022-07-23T06:54:49;21.80;;;19.70;;
71648;SDS011;59492;45.638;11.714;2022-07-23T06:57:14;21.60;;;19.30;;
71648;SDS011;59492;45.638;11.714;2022-07-23T06:59:40;24.60;;;19.70;;
71648;SDS011;59492;45.638;11.714;2022-07-23T07:02:06;20.40;;;18.50;;
71648;SDS011;59492;45.638;11.714;2022-07-23T07:04:32;20.80;;;18.60;;
71648;SDS011;59492;45.638;11.714;2022-07-23T07:06:58;22.80;;;20.00;;
71648;SDS011;59492;45.638;11.714;2022-07-23T07:09:24;21.20;;;19.00;;
71648;SDS011;59492;45.638;11.714;2022-07-23T07:11:49;23.10;;;20.10;;
71648;SDS011;59492;45.638;11.714;2022-07-23T07:14:15;24.40;;;19.30;;
71648;SDS011;59492;45.638;11.714;2022-07-23T07:16:41;23.20;;;18.70;;
71648;SDS011;59492;45.638;11.714;2022-07-23T07:19:06;21.50;;;19.10;;
71648;SDS011;59492;45.638;11.714;2022-07-23T07:21:32;24.30;;;20.00;;
71648;SDS011;59492;45.638;11.714;2022-07-23T07:23:57;21.50;;;18.90;;
71648;SDS011;59492;45.638;11.714;2022-07-23T07:26:23;21.00;;;18.90;;
71648;SDS011;59492;45.638;11.714;2022-07-23T07:28:49;21.90;;;19.50;;
71648;SDS011;59492;45.638;11.714;2022-07-23T07:31:14;22.70;;;19.40;;
71648;SDS011;59492;45.638;11.714;2022-07-23T07:33:40;21.70;;;19.40;;
71648;SDS011;59492;45.638;11.714;2022-07-23T07:36:05;21.10;;;18.90;;
71648;SDS011;59492;45.638;11.714;2022-07-23T07:38:31;19.80;;;17.80;;
71648;SDS011;59492;45.638;11.714;2022-07-23T07:40:57;20.20;;;17.90;;
71648;SDS011;59492;45.638;11.714;2022-07-23T07:43:22;19.10;;;17.20;;
71648;SDS011;59492;45.638;11.714;2022-07-23T07:45:48;19.90;;;17.90;;
71648;SDS011;59492;45.638;11.714;2022-07-23T07:48:14;19.20;;;17.20;;
71648;SDS011;59492;45.638;11.714;2022-07-23T07:50:39;19.60;;;17.50;;
71648;SDS011;59492;45.638;11.714;2022-07-23T07:53:05;20.20;;;18.00;;
71648;SDS011;59492;45.638;11.714;2022-07-23T07:55:31;21.00;;;18.20;;
71648;SDS011;59492;45.638;11.714;2022-07-23T07:57:57;20.10;;;17.60;;
71648;SDS011;59492;45.638;11.714;2022-07-23T08:00:23;19.50;;;17.60;;
71648;SDS011;59492;45.638;11.714;2022-07-23T08:02:50;20.00;;;17.80;;
71648;SDS011;59492;45.638;11.714;2022-07-23T08:05:21;19.60;;;17.60;;
71648;SDS011;59492;45.638;11.714;2022-07-23T08:07:48;24.20;;;18.00;;
71648;SDS011;59492;45.638;11.714;2022-07-23T08:10:14;25.00;;;18.70;;
71648;SDS011;59492;45.638;11.714;2022-07-23T08:12:45;23.50;;;18.90;;
71648;SDS011;59492;45.638;11.714;2022-07-23T08:15:29;21.70;;;18.10;;
71648;SDS011;59492;45.638;11.714;2022-07-23T08:17:56;21.10;;;17.40;;
71648;SDS011;59492;45.638;11.714;2022-07-23T08:20:23;19.30;;;17.30;;
71648;SDS011;59492;45.638;11.714;2022-07-23T08:22:54;19.60;;;17.60;;
71648;SDS011;59492;45.638;11.714;2022-07-23T08:25:35;20.10;;;18.10;;
71648;SDS011;59492;45.638;11.714;2022-07-23T08:28:08;20.00;;;18.00;;
71648;SDS011;59492;45.638;11.714;2022-07-23T08:30:35;20.20;;;18.20;;
71648;SDS011;59492;45.638;11.714;2022-07-23T08:33:04;20.20;;;18.20;;
71648;SDS011;59492;45.638;11.714;2022-07-23T08:35:36;20.50;;;18.30;;
71648;SDS011;59492;45.638;11.714;2022-07-23T08:38:04;19.60;;;17.30;;
71648;SDS011;59492;45.638;11.714;2022-07-23T08:40:33;19.20;;;17.30;;
71648;SDS011;59492;45.638;11.714;2022-07-23T08:43:05;22.80;;;17.60;;
71648;SDS011;59492;45.638;11.714;2022-07-23T08:45:40;21.10;;;17.40;;
71648;SDS011;59492;45.638;11.714;2022-07-23T08:48:16;18.50;;;16.70;;
71648;SDS011;59492;45.638;11.714;2022-07-23T08:50:44;18.70;;;16.80;;
71648;SDS011;59492;45.638;11.714;2022-07-23T08:53:14;18.50;;;16.50;;
71648;SDS011;59492;45.638;11.714;2022-07-23T08:55:43;19.10;;;17.20;;
71648;SDS011;59492;45.638;11.714;2022-07-23T08:58:15;20.40;;;17.80;;
71648;SDS011;59492;45.638;11.714;2022-07-23T09:00:47;18.40;;;16.60;;
71648;SDS011;59492;45.638;11.714;2022-07-23T09:03:29;20.10;;;17.80;;
71648;SDS011;59492;45.638;11.714;2022-07-23T09:06:00;18.60;;;16.80;;
71648;SDS011;59492;45.638;11.714;2022-07-23T09:08:37;18.50;;;16.60;;
71648;SDS011;59492;45.638;11.714;2022-07-23T09:11:08;18.60;;;16.70;;
71648;SDS011;59492;45.638;11.714;2022-07-23T09:13:51;18.80;;;16.90;;
71648;SDS011;59492;45.638;11.714;2022-07-23T09:16:19;19.00;;;17.20;;
71648;SDS011;59492;45.638;11.714;2022-07-23T09:18:56;19.10;;;17.20;;
71648;SDS011;59492;45.638;11.714;2022-07-23T09:23:59;18.50;;;16.80;;
71648;SDS011;59492;45.638;11.714;2022-07-23T09:29:04;18.80;;;16.90;;
71648;SDS011;59492;45.638;11.714;2022-07-23T09:31:41;17.70;;;16.10;;
71648;SDS011;59492;45.638;11.714;2022-07-23T09:34:11;19.10;;;17.30;;
71648;SDS011;59492;45.638;11.714;2022-07-23T09:36:42;19.90;;;17.70;;
71648;SDS011;59492;45.638;11.714;2022-07-23T09:39:08;19.10;;;17.20;;
71648;SDS011;59492;45.638;11.714;2022-07-23T09:41:44;19.00;;;17.00;;
71648;SDS011;59492;45.638;11.714;2022-07-23T09:44:12;19.10;;;17.10;;
71648;SDS011;59492;45.638;11.714;2022-07-23T09:46:43;18.60;;;16.70;;
71648;SDS011;59492;45.638;11.714;2022-07-23T09:49:18;19.50;;;17.60;;
71648;SDS011;59492;45.638;11.714;2022-07-23T09:51:50;18.70;;;16.90;;
71648;SDS011;59492;45.638;11.714;2022-07-23T09:54:37;17.80;;;16.30;;
71648;SDS011;59492;45.638;11.714;2022-07-23T09:57:07;18.50;;;16.80;;
71648;SDS011;59492;45.638;11.714;2022-07-23T09:59:38;18.10;;;16.40;;
71648;SDS011;59492;45.638;11.714;2022-07-23T10:02:05;19.50;;;17.40;;
71648;SDS011;59492;45.638;11.714;2022-07-23T10:04:32;18.00;;;16.30;;
71648;SDS011;59492;45.638;11.714;2022-07-23T10:07:00;18.00;;;16.10;;
71648;SDS011;59492;45.638;11.714;2022-07-23T10:09:29;18.20;;;16.30;;
71648;SDS011;59492;45.638;11.714;2022-07-23T10:11:59;18.50;;;16.60;;
71648;SDS011;59492;45.638;11.714;2022-07-23T10:14:40;16.70;;;15.10;;
71648;SDS011;59492;45.638;11.714;2022-07-23T10:17:06;17.00;;;15.40;;
71648;SDS011;59492;45.638;11.714;2022-07-23T10:19:33;17.10;;;15.40;;
71648;SDS011;59492;45.638;11.714;2022-07-23T10:22:03;16.90;;;15.10;;
71648;SDS011;59492;45.638;11.714;2022-07-23T10:27:00;17.00;;;15.30;;
71648;SDS011;59492;45.638;11.714;2022-07-23T10:32:20;16.20;;;14.70;;
71648;SDS011;59492;45.638;11.714;2022-07-23T10:35:13;16.30;;;14.40;;
71648;SDS011;59492;45.638;11.714;2022-07-23T10:37:45;16.30;;;14.70;;
71648;SDS011;59492;45.638;11.714;2022-07-23T10:40:17;16.00;;;14.40;;
71648;SDS011;59492;45.638;11.714;2022-07-23T10:42:47;14.70;;;13.30;;
71648;SDS011;59492;45.638;11.714;2022-07-23T10:45:26;16.00;;;14.40;;
71648;SDS011;59492;45.638;11.714;2022-07-23T10:48:15;17.80;;;15.40;;
71648;SDS011;59492;45.638;11.714;2022-07-23T10:50:43;17.70;;;15.30;;
71648;SDS011;59492;45.638;11.714;2022-07-23T10:53:11;17.80;;;15.00;;
71648;SDS011;59492;45.638;11.714;2022-07-23T10:55:40;15.90;;;14.30;;
71648;SDS011;59492;45.638;11.714;2022-07-23T10:58:08;17.20;;;15.60;;
71648;SDS011;59492;45.638;11.714;2022-07-23T11:00:36;16.10;;;14.60;;
71648;SDS011;59492;45.638;11.714;2022-07-23T11:03:27;17.80;;;16.00;;
71648;SDS011;59492;45.638;11.714;2022-07-23T11:05:54;15.70;;;14.10;;
71648;SDS011;59492;45.638;11.714;2022-07-23T11:08:19;16.10;;;14.60;;
71648;SDS011;59492;45.638;11.714;2022-07-23T11:10:50;17.00;;;15.30;;
71648;SDS011;59492;45.638;11.714;2022-07-23T11:31:54;15.70;;;13.80;;
71648;SDS011;59492;45.638;11.714;2022-07-23T11:34:29;14.90;;;13.50;;
71648;SDS011;59492;45.638;11.714;2022-07-23T11:36:56;16.20;;;14.50;;
71648;SDS011;59492;45.638;11.714;2022-07-23T11:39:22;15.10;;;13.60;;
71648;SDS011;59492;45.638;11.714;2022-07-23T11:41:54;15.00;;;13.50;;
71648;SDS011;59492;45.638;11.714;2022-07-23T11:44:28;15.00;;;13.50;;
71648;SDS011;59492;45.638;11.714;2022-07-23T11:46:56;15.00;;;13.50;;
71648;SDS011;59492;45.638;11.714;2022-07-23T11:49:23;15.70;;;14.30;;
71648;SDS011;59492;45.638;11.714;2022-07-23T11:57:26;14.60;;;13.20;;
71648;SDS011;59492;45.638;11.714;2022-07-23T12:00:00;14.50;;;13.10;;
71648;SDS011;59492;45.638;11.714;2022-07-23T12:02:30;15.00;;;13.30;;
71648;SDS011;59492;45.638;11.714;2022-07-23T12:04:56;14.30;;;13.10;;
71648;SDS011;59492;45.638;11.714;2022-07-23T12:10:02;14.10;;;12.80;;
71648;SDS011;59492;45.638;11.714;2022-07-23T12:12:38;14.40;;;13.10;;
71648;SDS011;59492;45.638;11.714;2022-07-23T12:15:05;14.00;;;12.60;;
71648;SDS011;59492;45.638;11.714;2022-07-23T12:17:34;13.20;;;11.90;;
71648;SDS011;59492;45.638;11.714;2022-07-23T12:20:02;14.10;;;12.70;;
71648;SDS011;59492;45.638;11.714;2022-07-23T12:22:38;14.20;;;12.80;;
71648;SDS011;59492;45.638;11.714;2022-07-23T12:27:33;14.00;;;12.70;;
71648;SDS011;59492;45.638;11.714;2022-07-23T12:30:14;14.30;;;12.10;;
71648;SDS011;59492;45.638;11.714;2022-07-23T12:32:43;13.30;;;11.90;;
71648;SDS011;59492;45.638;11.714;2022-07-23T12:35:10;13.70;;;12.50;;
71648;SDS011;59492;45.638;11.714;2022-07-23T12:37:37;12.60;;;11.50;;
71648;SDS011;59492;45.638;11.714;2022-07-23T12:42:50;13.00;;;11.70;;
71648;SDS011;59492;45.638;11.714;2022-07-23T12:45:18;14.30;;;12.10;;
71648;SDS011;59492;45.638;11.714;2022-07-23T12:47:50;13.10;;;11.70;;
71648;SDS011;59492;45.638;11.714;2022-07-23T12:50:35;12.90;;;11.50;;
71648;SDS011;59492;45.638;11.714;2022-07-23T12:53:11;12.30;;;11.20;;
71648;SDS011;59492;45.638;11.714;2022-07-23T12:55:41;13.10;;;11.90;;
71648;SDS011;59492;45.638;11.714;2022-07-23T12:58:09;13.30;;;12.10;;
71648;SDS011;59492;45.638;11.714;2022-07-23T13:06:19;11.90;;;10.80;;
71648;SDS011;59492;45.638;11.714;2022-07-23T13:08:44;11.90;;;10.80;;
71648;SDS011;59492;45.638;11.714;2022-07-23T13:11:10;12.60;;;11.40;;
71648;SDS011;59492;45.638;11.714;2022-07-23T13:13:36;12.50;;;11.40;;
71648;SDS011;59492;45.638;11.714;2022-07-23T13:16:01;12.50;;;11.00;;
71648;SDS011;59492;45.638;11.714;2022-07-23T13:18:28;11.30;;;10.30;;
71648;SDS011;59492;45.638;11.714;2022-07-23T13:20:54;11.40;;;10.30;;
71648;SDS011;59492;45.638;11.714;2022-07-23T13:23:20;11.70;;;10.60;;
71648;SDS011;59492;45.638;11.714;2022-07-23T13:25:46;11.80;;;10.40;;
71648;SDS011;59492;45.638;11.714;2022-07-23T13:28:13;11.30;;;10.30;;
71648;SDS011;59492;45.638;11.714;2022-07-23T13:30:40;11.50;;;10.40;;
71648;SDS011;59492;45.638;11.714;2022-07-23T13:33:06;13.20;;;10.60;;
71648;SDS011;59492;45.638;11.714;2022-07-23T13:35:33;11.40;;;10.30;;
71648;SDS011;59492;45.638;11.714;2022-07-23T13:38:00;11.50;;;10.30;;
71648;SDS011;59492;45.638;11.714;2022-07-23T13:40:26;11.40;;;10.30;;
71648;SDS011;59492;45.638;11.714;2022-07-23T13:42:52;11.00;;;10.00;;
71648;SDS011;59492;45.638;11.714;2022-07-23T13:45:18;11.40;;;10.20;;
71648;SDS011;59492;45.638;11.714;2022-07-23T13:47:44;11.40;;;10.20;;
71648;SDS011;59492;45.638;11.714;2022-07-23T13:50:10;10.40;;;9.50;;
71648;SDS011;59492;45.638;11.714;2022-07-23T13:52:36;10.60;;;9.70;;
71648;SDS011;59492;45.638;11.714;2022-07-23T13:55:02;10.60;;;9.70;;
71648;SDS011;59492;45.638;11.714;2022-07-23T13:57:30;10.70;;;9.80;;
71648;SDS011;59492;45.638;11.714;2022-07-23T13:59:57;11.20;;;10.20;;
71648;SDS011;59492;45.638;11.714;2022-07-23T14:02:23;10.50;;;9.50;;
71648;SDS011;59492;45.638;11.714;2022-07-23T14:04:49;11.40;;;10.20;;
71648;SDS011;59492;45.638;11.714;2022-07-23T14:07:15;11.10;;;10.10;;
71648;SDS011;59492;45.638;11.714;2022-07-23T14:09:41;11.00;;;9.90;;
71648;SDS011;59492;45.638;11.714;2022-07-23T14:12:07;11.00;;;9.90;;
71648;SDS011;59492;45.638;11.714;2022-07-23T14:14:33;11.20;;;10.10;;
71648;SDS011;59492;45.638;11.714;2022-07-23T14:16:59;10.20;;;9.30;;
71648;SDS011;59492;45.638;11.714;2022-07-23T14:19:25;10.80;;;9.90;;
71648;SDS011;59492;45.638;11.714;2022-07-23T14:21:51;10.60;;;9.70;;
71648;SDS011;59492;45.638;11.714;2022-07-23T14:24:17;10.30;;;9.30;;
71648;SDS011;59492;45.638;11.714;2022-07-23T14:26:43;10.50;;;9.60;;
71648;SDS011;59492;45.638;11.714;2022-07-23T14:29:08;10.60;;;9.60;;
71648;SDS011;59492;45.638;11.714;2022-07-23T14:31:35;10.10;;;9.20;;
71648;SDS011;59492;45.638;11.714;2022-07-23T14:34:04;9.60;;;8.70;;
71648;SDS011;59492;45.638;11.714;2022-07-23T14:36:39;9.90;;;8.90;;
71648;SDS011;59492;45.638;11.714;2022-07-23T14:39:06;9.90;;;9.00;;
71648;SDS011;59492;45.638;11.714;2022-07-23T14:41:38;9.70;;;8.90;;
71648;SDS011;59492;45.638;11.714;2022-07-23T14:44:06;9.50;;;8.60;;
71648;SDS011;59492;45.638;11.714;2022-07-23T14:46:32;9.60;;;8.70;;
71648;SDS011;59492;45.638;11.714;2022-07-23T14:48:57;9.70;;;8.70;;
71648;SDS011;59492;45.638;11.714;2022-07-23T14:51:23;9.40;;;8.60;;
71648;SDS011;59492;45.638;11.714;2022-07-23T14:53:49;9.40;;;8.50;;
71648;SDS011;59492;45.638;11.714;2022-07-23T14:56:15;9.80;;;8.90;;
71648;SDS011;59492;45.638;11.714;2022-07-23T14:58:41;9.70;;;8.80;;
71648;SDS011;59492;45.638;11.714;2022-07-23T15:01:07;9.50;;;8.70;;